Time;durP1;ratioP1;P1;durP2;ratioP2;P2;SDS_P1;SDS_P2;PMS_P1;PMS_P2;Temp;Humidity;BMP_temperature;BMP_pressure;BME280_temperature;BME280_humidity;BME280_pressure;Samples;Min_cycle;Max_cycle;Signal;HPM_P1;HPM_P2
2023/03/06 00:00:47;;;;;;;13.07;10.13;;;5.20;99.90;;;;;;5056791;28;20437;-78
2023/03/06 00:03:13;;;;;;;14.17;11.20;;;5.40;99.90;;;;;;5064948;28;20422;-78
2023/03/06 00:05:38;;;;;;;13.30;11.40;;;5.20;99.90;;;;;;5066860;28;20436;-79
2023/03/06 00:08:05;;;;;;;16.77;11.43;;;5.20;99.90;;;;;;5063162;28;20230;-78
2023/03/06 00:10:31;;;;;;;15.27;11.87;;;5.30;99.90;;;;;;5069571;28;20249;-77
2023/03/06 00:13:00;;;;;;;13.77;11.03;;;5.30;99.90;;;;;;5070255;28;20410;-79
2023/03/06 00:15:26;;;;;;;18.03;12.37;;;5.40;99.90;;;;;;5072364;28;20415;-78
2023/03/06 00:17:52;;;;;;;17.00;11.53;;;5.20;99.90;;;;;;5061226;28;20786;-78
2023/03/06 00:20:19;;;;;;;14.80;12.00;;;5.20;99.90;;;;;;5053271;28;20412;-78
2023/03/06 00:22:45;;;;;;;18.23;12.83;;;5.30;99.90;;;;;;5063121;28;20264;-78
2023/03/06 00:25:14;;;;;;;23.50;14.07;;;5.10;99.90;;;;;;5072107;28;20407;-79
2023/03/06 00:27:40;;;;;;;20.87;13.73;;;5.10;99.90;;;;;;5071287;28;20944;-78
2023/03/06 00:30:07;;;;;;;18.63;14.20;;;5.30;99.90;;;;;;5058900;28;20451;-78
2023/03/06 00:32:33;;;;;;;18.87;14.50;;;5.30;99.90;;;;;;5066789;28;20416;-78
2023/03/06 00:34:58;;;;;;;20.47;14.30;;;5.00;99.90;;;;;;5040078;28;20412;-79
2023/03/06 00:37:24;;;;;;;19.70;14.93;;;5.10;99.90;;;;;;5056327;28;20186;-78
2023/03/06 00:39:50;;;;;;;17.37;13.90;;;5.10;99.90;;;;;;5056534;28;20177;-78
2023/03/06 00:42:17;;;;;;;20.97;15.00;;;5.20;99.90;;;;;;5057702;28;20897;-78
2023/03/06 00:44:43;;;;;;;18.77;14.37;;;5.10;99.90;;;;;;5055388;28;20920;-78
2023/03/06 00:47:10;;;;;;;19.37;14.30;;;5.30;99.90;;;;;;5058438;28;20436;-78
2023/03/06 00:49:36;;;;;;;19.17;14.90;;;5.20;99.90;;;;;;5052987;28;20459;-78
2023/03/06 00:52:01;;;;;;;21.83;15.87;;;5.20;99.90;;;;;;5072941;28;20930;-78
2023/03/06 00:54:27;;;;;;;21.73;17.03;;;5.30;99.90;;;;;;5071187;28;20908;-78
2023/03/06 00:56:53;;;;;;;24.90;16.97;;;5.00;99.90;;;;;;5052755;28;20189;-78
2023/03/06 00:59:18;;;;;;;23.93;16.37;;;5.10;99.90;;;;;;5052970;28;20210;-78
2023/03/06 01:01:44;;;;;;;25.47;19.10;;;5.10;99.90;;;;;;5053747;28;20550;-77
2023/03/06 01:04:10;;;;;;;27.03;20.50;;;5.20;99.90;;;;;;5061996;28;20174;-78
2023/03/06 01:06:36;;;;;;;25.17;19.57;;;5.00;99.90;;;;;;5070463;28;20229;-78
2023/03/06 01:09:02;;;;;;;28.70;20.17;;;5.00;99.90;;;;;;5067358;28;20541;-78
2023/03/06 01:11:28;;;;;;;29.63;21.50;;;5.10;99.90;;;;;;5059551;28;20177;-79
2023/03/06 01:13:54;;;;;;;28.80;20.60;;;5.00;99.90;;;;;;5056458;28;20419;-78
2023/03/06 01:16:20;;;;;;;29.03;20.50;;;5.20;99.90;;;;;;5052479;28;20419;-78
2023/03/06 01:18:46;;;;;;;28.80;20.00;;;5.20;99.90;;;;;;5037931;28;20229;-79
2023/03/06 01:21:12;;;;;;;26.27;18.93;;;5.20;99.90;;;;;;5071083;28;20811;-78
2023/03/06 01:23:38;;;;;;;25.97;18.33;;;4.90;99.90;;;;;;5072362;28;20416;-79
2023/03/06 01:26:04;;;;;;;27.30;19.17;;;5.00;99.90;;;;;;5071320;28;20412;-78
2023/03/06 01:28:32;;;;;;;30.27;20.47;;;5.30;99.90;;;;;;5071883;28;20454;-79
2023/03/06 01:30:59;;;;;;;25.20;18.07;;;5.20;99.90;;;;;;5070453;28;20433;-79
2023/03/06 01:33:24;;;;;;;25.03;17.30;;;5.20;99.90;;;;;;5071963;28;20912;-78
2023/03/06 01:35:50;;;;;;;25.00;17.30;;;5.20;99.90;;;;;;5072147;28;20449;-78
2023/03/06 01:38:16;;;;;;;20.40;14.30;;;5.10;99.90;;;;;;5071826;28;20216;-78
2023/03/06 01:40:42;;;;;;;21.30;15.60;;;5.10;99.90;;;;;;5071886;28;20192;-77
2023/03/06 01:43:10;;;;;;;20.90;15.37;;;5.00;99.90;;;;;;5071728;28;20710;-78
2023/03/06 01:45:35;;;;;;;22.20;15.47;;;5.00;99.90;;;;;;5071970;28;20188;-78
2023/03/06 01:48:01;;;;;;;20.80;15.17;;;5.20;99.90;;;;;;5070278;28;20432;-78
2023/03/06 01:50:27;;;;;;;18.63;14.67;;;5.00;99.90;;;;;;5070459;28;20664;-79
2023/03/06 01:52:58;;;;;;;21.43;15.40;;;4.90;99.90;;;;;;5071614;28;20192;-78
2023/03/06 01:55:32;;;;;;;18.97;14.83;;;5.00;99.90;;;;;;5070596;28;20391;-77
2023/03/06 01:58:02;;;;;;;16.80;14.20;;;5.10;99.90;;;;;;5071448;28;20480;-78
2023/03/06 02:00:29;;;;;;;17.43;13.90;;;5.20;99.90;;;;;;5071511;28;20407;-77
2023/03/06 02:03:09;;;;;;;19.63;14.93;;;4.90;99.90;;;;;;5070014;28;20942;-78
2023/03/06 02:05:35;;;;;;;17.87;13.97;;;5.10;99.90;;;;;;5070171;28;20439;-77
2023/03/06 02:08:02;;;;;;;17.90;12.57;;;5.10;99.90;;;;;;5071009;28;20423;-78
2023/03/06 02:10:28;;;;;;;16.80;13.83;;;5.00;99.90;;;;;;5071301;28;20495;-78
2023/03/06 02:12:54;;;;;;;15.63;12.03;;;4.90;99.90;;;;;;5071289;28;20412;-78
2023/03/06 02:15:23;;;;;;;16.43;13.10;;;5.10;99.90;;;;;;5070053;28;20419;-79
2023/03/06 02:17:50;;;;;;;15.53;13.00;;;5.10;99.90;;;;;;5070955;28;20215;-78
2023/03/06 02:20:25;;;;;;;16.90;13.20;;;4.90;99.90;;;;;;5071067;28;20416;-79
2023/03/06 02:23:16;;;;;;;20.47;14.87;;;4.90;99.90;;;;;;5071314;28;20402;-78
2023/03/06 02:25:45;;;;;;;17.23;13.63;;;5.10;99.90;;;;;;5069930;28;20830;-77
2023/03/06 02:28:15;;;;;;;18.70;15.57;;;4.90;99.90;;;;;;5070659;28;20427;-78
2023/03/06 02:30:43;;;;;;;19.30;15.57;;;4.90;99.90;;;;;;5070470;28;20412;-78
2023/03/06 02:33:35;;;;;;;18.63;14.50;;;4.90;99.90;;;;;;5070625;28;20408;-79
2023/03/06 02:36:04;;;;;;;18.00;14.43;;;4.90;99.90;;;;;;5070455;28;20943;-79
2023/03/06 02:38:43;;;;;;;20.30;16.03;;;4.90;99.90;;;;;;5069169;28;20463;-78
2023/03/06 02:41:09;;;;;;;20.27;15.03;;;5.10;99.90;;;;;;5069601;28;20419;-78
2023/03/06 02:43:38;;;;;;;20.37;14.90;;;4.90;99.90;;;;;;5069276;28;20503;-79
2023/03/06 02:46:04;;;;;;;20.10;14.90;;;5.10;99.90;;;;;;5052819;28;20932;-77
2023/03/06 02:48:29;;;;;;;25.57;17.83;;;5.10;99.90;;;;;;5070130;28;20484;-78
2023/03/06 02:50:55;;;;;;;20.33;14.80;;;5.10;99.90;;;;;;5070544;28;20260;-78
2023/03/06 02:53:21;;;;;;;22.83;16.57;;;4.80;99.90;;;;;;5070537;28;20252;-78
2023/03/06 02:55:47;;;;;;;20.30;16.07;;;4.80;99.90;;;;;;5070521;28;20170;-78
2023/03/06 02:58:13;;;;;;;19.57;14.67;;;4.70;99.90;;;;;;5070362;28;20427;-78
2023/03/06 03:00:38;;;;;;;23.27;16.10;;;5.00;99.90;;;;;;5070528;28;20910;-78
2023/03/06 03:03:05;;;;;;;22.30;16.73;;;4.90;99.90;;;;;;5070426;28;20173;-77
2023/03/06 03:05:31;;;;;;;25.57;17.80;;;4.90;99.90;;;;;;5069109;28;20199;-78
2023/03/06 03:07:56;;;;;;;22.20;17.00;;;4.80;99.90;;;;;;5070174;28;20442;-77
2023/03/06 03:10:22;;;;;;;24.17;16.43;;;5.10;99.90;;;;;;5068826;28;20407;-78
2023/03/06 03:12:48;;;;;;;22.93;17.60;;;4.80;99.90;;;;;;5070212;28;20246;-78
2023/03/06 03:15:14;;;;;;;29.87;18.97;;;4.80;99.90;;;;;;5068978;28;20780;-77
2023/03/06 03:17:40;;;;;;;23.57;17.83;;;5.00;99.90;;;;;;5068736;28;20433;-79
2023/03/06 03:20:11;;;;;;;23.30;17.70;;;5.00;99.90;;;;;;5070087;28;20174;-78
2023/03/06 03:22:37;;;;;;;24.80;18.33;;;4.90;99.90;;;;;;5070200;28;20497;-78
2023/03/06 03:25:03;;;;;;;22.57;16.97;;;4.90;99.90;;;;;;5070115;28;20518;-78
2023/03/06 03:27:29;;;;;;;25.10;18.60;;;4.70;99.90;;;;;;5069816;28;20451;-78
2023/03/06 03:29:58;;;;;;;25.90;17.90;;;4.80;99.90;;;;;;5069876;28;20807;-78
2023/03/06 03:32:24;;;;;;;24.27;18.00;;;4.70;99.90;;;;;;5069918;28;20629;-78
2023/03/06 03:34:49;;;;;;;28.90;19.33;;;4.80;99.90;;;;;;5069933;28;20437;-77
2023/03/06 03:37:15;;;;;;;27.80;18.73;;;4.80;99.90;;;;;;5069836;28;20713;-79
2023/03/06 03:39:41;;;;;;;25.70;17.93;;;4.80;99.90;;;;;;5069851;28;20185;-81
2023/03/06 03:42:06;;;;;;;31.37;21.13;;;4.80;99.90;;;;;;5070008;28;20172;-77
2023/03/06 03:44:32;;;;;;;29.70;20.37;;;4.70;99.90;;;;;;5069843;28;20188;-78
2023/03/06 03:46:58;;;;;;;27.57;19.60;;;4.70;99.90;;;;;;5068668;28;20685;-78
2023/03/06 03:49:23;;;;;;;27.50;20.10;;;4.90;99.90;;;;;;5072894;28;20254;-78
2023/03/06 03:51:50;;;;;;;26.97;19.63;;;4.60;99.90;;;;;;5074307;28;20258;-79
2023/03/06 03:54:15;;;;;;;28.47;19.37;;;4.70;99.90;;;;;;5074206;28;20249;-79
2023/03/06 03:56:41;;;;;;;26.20;18.37;;;4.80;99.90;;;;;;5074366;28;20411;-78
2023/03/06 03:59:07;;;;;;;30.67;19.17;;;4.80;99.90;;;;;;5073957;28;20253;-77
2023/03/06 04:01:33;;;;;;;27.20;18.87;;;4.80;99.90;;;;;;5072735;28;20411;-78
2023/03/06 04:03:59;;;;;;;24.20;18.40;;;4.90;99.90;;;;;;5074145;28;20264;-78
2023/03/06 04:06:24;;;;;;;22.30;16.57;;;4.70;99.90;;;;;;5073703;28;20955;-78
2023/03/06 04:08:50;;;;;;;23.60;17.90;;;4.80;99.90;;;;;;5073790;28;20280;-77
2023/03/06 04:11:16;;;;;;;22.80;17.60;;;4.60;99.90;;;;;;5072372;28;20188;-79
2023/03/06 04:13:41;;;;;;;26.00;18.30;;;4.70;99.90;;;;;;5073773;28;20551;-78
2023/03/06 04:16:07;;;;;;;24.63;17.57;;;4.50;99.90;;;;;;5072689;28;20538;-78
2023/03/06 04:18:33;;;;;;;24.30;18.10;;;4.70;99.90;;;;;;5073328;28;20554;-77
2023/03/06 04:20:58;;;;;;;23.70;16.80;;;4.70;99.90;;;;;;5073400;28;20184;-78
2023/03/06 04:23:26;;;;;;;21.57;15.90;;;4.60;99.90;;;;;;5073246;28;20183;-78
2023/03/06 04:25:52;;;;;;;22.10;15.20;;;4.60;99.90;;;;;;5073381;28;20515;-77
2023/03/06 04:28:19;;;;;;;19.10;14.87;;;4.80;99.90;;;;;;5073093;28;20858;-78
2023/03/06 04:30:44;;;;;;;20.77;13.90;;;4.80;99.90;;;;;;5071735;28;20426;-78
2023/03/06 04:33:11;;;;;;;20.10;14.00;;;4.60;99.90;;;;;;5072467;28;20486;-78
2023/03/06 04:35:36;;;;;;;16.97;13.00;;;4.90;99.90;;;;;;5073643;28;20244;-78
2023/03/06 04:38:03;;;;;;;18.90;12.27;;;4.50;99.90;;;;;;5071554;28;20535;-77
2023/03/06 04:40:31;;;;;;;16.77;13.10;;;4.60;99.90;;;;;;5071699;28;20275;-78
2023/03/06 04:42:59;;;;;;;14.90;11.40;;;4.70;99.90;;;;;;5073147;28;20493;-79
2023/03/06 04:45:26;;;;;;;18.00;12.17;;;4.60;99.90;;;;;;5072872;28;20404;-78
2023/03/06 04:47:52;;;;;;;16.40;12.40;;;4.60;99.90;;;;;;5072527;28;20459;-78
2023/03/06 04:50:19;;;;;;;18.70;13.97;;;4.50;99.90;;;;;;5072423;28;20538;-78
2023/03/06 04:52:45;;;;;;;16.90;11.67;;;4.80;99.90;;;;;;5071509;28;20465;-78
2023/03/06 04:55:12;;;;;;;17.50;12.53;;;4.60;99.90;;;;;;5072457;28;20415;-78
2023/03/06 04:57:40;;;;;;;20.20;13.70;;;4.50;99.90;;;;;;5071326;28;20677;-78
2023/03/06 05:00:11;;;;;;;21.63;13.87;;;4.60;99.90;;;;;;5072127;28;20411;-79
2023/03/06 05:02:36;;;;;;;23.30;15.00;;;4.60;99.90;;;;;;5072407;28;20415;-78
2023/03/06 05:05:03;;;;;;;21.23;13.67;;;4.60;99.90;;;;;;5071858;28;20407;-79
2023/03/06 05:07:29;;;;;;;20.20;15.10;;;4.50;99.90;;;;;;5072237;28;20725;-77
2023/03/06 05:09:55;;;;;;;22.40;14.10;;;4.70;99.90;;;;;;5072240;28;20554;-77
2023/03/06 05:12:21;;;;;;;19.57;13.63;;;4.60;99.90;;;;;;5071215;28;20176;-78
2023/03/06 05:14:47;;;;;;;20.73;14.13;;;4.80;99.90;;;;;;5071122;28;20419;-78
2023/03/06 05:17:12;;;;;;;20.40;14.40;;;4.70;99.90;;;;;;5070035;28;20201;-78
2023/03/06 05:19:38;;;;;;;19.40;14.10;;;4.50;99.90;;;;;;5072174;28;20903;-79
2023/03/06 05:22:04;;;;;;;20.17;15.07;;;4.80;99.90;;;;;;5070886;28;20217;-76
2023/03/06 05:24:30;;;;;;;22.63;15.93;;;4.50;99.90;;;;;;5070730;28;20649;-77
2023/03/06 05:26:55;;;;;;;25.50;16.50;;;4.60;99.90;;;;;;5071851;28;20511;-78
2023/03/06 05:29:21;;;;;;;20.97;15.17;;;4.50;99.90;;;;;;5070527;28;20197;-78
2023/03/06 05:31:47;;;;;;;24.03;15.67;;;4.40;99.90;;;;;;5071892;28;20227;-78
2023/03/06 05:34:14;;;;;;;23.67;17.10;;;4.50;99.90;;;;;;5071652;28;20173;-79
2023/03/06 05:36:39;;;;;;;21.23;15.77;;;4.60;99.90;;;;;;5071832;28;20180;-79
2023/03/06 05:39:05;;;;;;;21.73;15.83;;;4.60;99.90;;;;;;5071482;28;20416;-79
2023/03/06 05:41:31;;;;;;;24.27;16.17;;;4.50;99.90;;;;;;5071830;28;20188;-78
2023/03/06 05:43:57;;;;;;;21.30;15.30;;;4.40;99.90;;;;;;5072088;28;20223;-78
2023/03/06 05:46:24;;;;;;;21.83;14.87;;;4.30;99.90;;;;;;5072448;28;21084;-78
2023/03/06 05:48:51;;;;;;;22.83;16.43;;;4.40;99.90;;;;;;5054824;28;20524;-79
2023/03/06 05:51:17;;;;;;;22.67;16.80;;;4.30;99.90;;;;;;5071711;28;20419;-78
2023/03/06 05:53:43;;;;;;;23.57;16.23;;;4.60;99.90;;;;;;5070767;28;20403;-79
2023/03/06 05:56:09;;;;;;;19.47;14.70;;;4.50;99.90;;;;;;5070288;28;20412;-78
2023/03/06 05:58:34;;;;;;;21.93;17.07;;;4.60;99.90;;;;;;5070985;28;20205;-78
2023/03/06 06:01:10;;;;;;;20.20;14.97;;;4.60;99.90;;;;;;5071101;28;20169;-78
2023/03/06 06:03:37;;;;;;;23.20;16.27;;;4.50;99.90;;;;;;5071229;28;20541;-78
2023/03/06 06:06:07;;;;;;;23.07;16.63;;;4.40;99.90;;;;;;5070248;28;20920;-78
2023/03/06 06:08:33;;;;;;;23.83;16.90;;;4.40;99.90;;;;;;5070983;28;20487;-78
2023/03/06 06:10:59;;;;;;;22.23;16.73;;;4.30;99.90;;;;;;5070509;28;20412;-78
2023/03/06 06:13:25;;;;;;;26.03;17.77;;;4.30;99.90;;;;;;5069311;28;20466;-78
2023/03/06 06:15:51;;;;;;;26.60;17.60;;;4.30;99.90;;;;;;5071083;28;20184;-78
2023/03/06 06:18:16;;;;;;;27.20;16.80;;;4.30;99.90;;;;;;5070576;28;20588;-79
2023/03/06 06:20:42;;;;;;;25.43;18.13;;;4.40;99.90;;;;;;5070723;28;20759;-78
2023/03/06 06:23:10;;;;;;;24.80;16.67;;;4.40;99.90;;;;;;5069523;28;20173;-78
2023/03/06 06:25:36;;;;;;;27.50;17.10;;;4.20;99.90;;;;;;5070800;28;20174;-78
2023/03/06 06:28:03;;;;;;;24.07;16.73;;;4.50;99.90;;;;;;5070188;28;20521;-78
2023/03/06 06:30:29;;;;;;;24.40;17.27;;;4.40;99.90;;;;;;5070187;28;20858;-78
2023/03/06 06:32:55;;;;;;;22.80;15.43;;;4.50;99.90;;;;;;5069205;28;20904;-78
2023/03/06 06:35:21;;;;;;;26.27;17.57;;;4.30;99.90;;;;;;5070507;28;20414;-78
2023/03/06 06:37:47;;;;;;;23.07;15.50;;;4.30;99.90;;;;;;5070268;28;20200;-78
2023/03/06 06:40:13;;;;;;;21.37;16.10;;;4.40;99.90;;;;;;5070368;28;20415;-78
2023/03/06 06:42:38;;;;;;;23.53;14.60;;;4.50;99.90;;;;;;5070438;28;20442;-78
2023/03/06 06:45:04;;;;;;;22.27;15.00;;;4.30;99.90;;;;;;5068816;28;20445;-77
2023/03/06 06:47:31;;;;;;;23.10;15.40;;;4.40;99.90;;;;;;5069641;28;20269;-76
2023/03/06 06:49:57;;;;;;;21.03;15.57;;;4.20;99.90;;;;;;5066692;28;20820;-76
2023/03/06 06:52:23;;;;;;;24.63;15.50;;;4.40;99.90;;;;;;5028839;28;20414;-76
2023/03/06 06:54:49;;;;;;;26.70;17.63;;;4.30;99.90;;;;;;5044766;28;20178;-76
2023/03/06 06:57:15;;;;;;;29.07;18.53;;;4.50;99.90;;;;;;5041212;28;20433;-76
2023/03/06 06:59:41;;;;;;;26.57;16.90;;;4.40;99.90;;;;;;5040696;28;20417;-76
2023/03/06 07:02:09;;;;;;;24.30;18.13;;;4.50;99.90;;;;;;5039682;28;20431;-76
2023/03/06 07:04:35;;;;;;;24.77;17.83;;;4.30;99.90;;;;;;5038382;28;20799;-76
2023/03/06 07:07:01;;;;;;;29.40;17.90;;;4.30;99.90;;;;;;5038676;28;20485;-76
2023/03/06 07:09:26;;;;;;;29.67;18.43;;;4.30;99.90;;;;;;5029914;28;20566;-76
2023/03/06 07:11:52;;;;;;;24.63;16.80;;;4.30;99.90;;;;;;5047217;28;20417;-77
2023/03/06 07:14:18;;;;;;;27.93;17.80;;;4.30;99.90;;;;;;5049378;28;20177;-76
2023/03/06 07:16:43;;;;;;;29.20;17.67;;;4.40;99.90;;;;;;5049651;28;20174;-76
2023/03/06 07:19:09;;;;;;;29.33;17.37;;;4.50;99.90;;;;;;5049716;28;20272;-76
2023/03/06 07:21:34;;;;;;;28.57;18.93;;;4.40;99.90;;;;;;5048335;28;20268;-76
2023/03/06 07:24:00;;;;;;;29.27;17.57;;;4.40;99.90;;;;;;5048526;28;20711;-76
2023/03/06 07:26:27;;;;;;;27.47;18.27;;;4.40;99.90;;;;;;5048335;28;20221;-76
2023/03/06 07:28:53;;;;;;;30.30;19.00;;;4.60;99.90;;;;;;5049125;28;20300;-76
2023/03/06 07:31:21;;;;;;;27.83;17.73;;;4.40;99.90;;;;;;5049372;28;20454;-77
2023/03/06 07:33:48;;;;;;;26.90;17.40;;;4.60;99.90;;;;;;5049066;28;20415;-75
2023/03/06 07:36:14;;;;;;;27.60;18.60;;;4.40;99.90;;;;;;5048127;28;20981;-75
2023/03/06 07:38:39;;;;;;;32.00;18.43;;;4.60;99.90;;;;;;5047601;28;20436;-76
2023/03/06 07:41:08;;;;;;;29.97;19.07;;;4.50;99.90;;;;;;5049232;28;20222;-75
2023/03/06 07:43:34;;;;;;;29.63;17.53;;;4.60;99.90;;;;;;5049152;28;20174;-78
2023/03/06 07:46:00;;;;;;;27.03;18.33;;;4.60;99.90;;;;;;5049429;28;20415;-78
2023/03/06 07:48:26;;;;;;;28.10;18.00;;;4.50;99.90;;;;;;5047607;28;20206;-77
2023/03/06 07:50:56;;;;;;;29.40;18.50;;;4.40;99.90;;;;;;5049240;28;20408;-77
2023/03/06 07:53:23;;;;;;;30.13;17.73;;;4.60;99.90;;;;;;5049051;28;20450;-78
2023/03/06 07:55:49;;;;;;;27.13;17.33;;;4.60;99.90;;;;;;5049285;28;20413;-77
2023/03/06 07:58:15;;;;;;;30.60;18.93;;;4.60;99.90;;;;;;5028276;28;20440;-77
2023/03/06 08:00:41;;;;;;;28.80;16.90;;;4.50;99.90;;;;;;5029147;28;20416;-78
2023/03/06 08:03:11;;;;;;;29.07;18.43;;;4.60;99.90;;;;;;5034260;28;20417;-78
2023/03/06 08:05:37;;;;;;;30.47;18.23;;;4.60;99.90;;;;;;5029399;28;20194;-77
2023/03/06 08:08:03;;;;;;;29.77;18.30;;;4.60;99.90;;;;;;5028754;28;20464;-78
2023/03/06 08:10:28;;;;;;;32.83;20.80;;;4.60;99.90;;;;;;5027706;28;20538;-78
2023/03/06 08:12:54;;;;;;;32.17;19.33;;;4.50;99.90;;;;;;5029173;28;20779;-78
2023/03/06 08:15:20;;;;;;;25.90;17.20;;;4.50;99.90;;;;;;5029023;28;20671;-78
2023/03/06 08:17:46;;;;;;;25.90;18.10;;;4.50;99.90;;;;;;5028795;28;20276;-77
2023/03/06 08:20:13;;;;;;;29.30;18.73;;;4.60;99.90;;;;;;5045895;28;20672;-78
2023/03/06 08:22:39;;;;;;;28.80;18.30;;;4.50;99.90;;;;;;5047905;28;20414;-78
2023/03/06 08:25:06;;;;;;;25.77;16.20;;;4.70;99.90;;;;;;5036770;28;20492;-77
2023/03/06 08:27:33;;;;;;;27.80;17.70;;;4.70;99.90;;;;;;5011122;28;20441;-78
2023/03/06 08:29:59;;;;;;;30.80;18.77;;;4.60;99.90;;;;;;5027348;28;20523;-77
2023/03/06 08:32:25;;;;;;;28.87;18.50;;;4.60;99.90;;;;;;5028085;28;20425;-78
2023/03/06 08:34:51;;;;;;;28.30;18.70;;;4.70;99.90;;;;;;5034999;28;20413;-78
2023/03/06 08:37:17;;;;;;;29.63;17.80;;;4.50;99.90;;;;;;5044359;28;20432;-77
2023/03/06 08:39:42;;;;;;;26.33;16.27;;;4.80;99.90;;;;;;5052376;28;20408;-77
2023/03/06 08:42:09;;;;;;;25.33;16.47;;;4.70;99.90;;;;;;5043704;28;20189;-77
2023/03/06 08:44:35;;;;;;;23.87;14.90;;;4.80;99.90;;;;;;5044911;28;20285;-77
2023/03/06 08:47:02;;;;;;;24.53;16.00;;;4.70;99.90;;;;;;5052030;28;21217;-78
2023/03/06 08:49:28;;;;;;;23.73;14.97;;;4.90;99.90;;;;;;5038219;28;20206;-78
2023/03/06 08:51:53;;;;;;;25.53;15.80;;;4.70;99.90;;;;;;5043325;28;20416;-78
2023/03/06 08:54:19;;;;;;;23.27;14.80;;;4.80;99.90;;;;;;5032136;28;20224;-78
2023/03/06 08:56:45;;;;;;;20.43;13.80;;;4.80;99.90;;;;;;5032023;28;20200;-78
2023/03/06 08:59:12;;;;;;;20.73;13.50;;;4.90;99.90;;;;;;5031078;28;20286;-78
2023/03/06 09:01:39;;;;;;;19.10;13.37;;;4.60;99.90;;;;;;5032094;28;20408;-78
2023/03/06 09:04:10;;;;;;;20.97;14.80;;;4.70;99.90;;;;;;5030766;28;20563;-78
2023/03/06 09:06:39;;;;;;;22.90;14.20;;;4.70;99.90;;;;;;5032168;28;20441;-79
2023/03/06 09:09:05;;;;;;;25.33;15.77;;;4.60;99.90;;;;;;5031742;28;20444;-78
2023/03/06 09:11:31;;;;;;;22.27;13.70;;;4.80;99.90;;;;;;5032057;28;20487;-78
2023/03/06 09:13:57;;;;;;;22.97;14.70;;;4.80;99.90;;;;;;5031498;28;20432;-77
2023/03/06 09:16:23;;;;;;;23.63;15.07;;;4.80;99.90;;;;;;5032372;28;20417;-77
2023/03/06 09:18:51;;;;;;;22.83;15.77;;;4.70;99.90;;;;;;5029211;28;20483;-77
2023/03/06 09:21:18;;;;;;;25.40;16.07;;;5.00;99.90;;;;;;5046277;28;20412;-78
2023/03/06 09:23:44;;;;;;;23.47;15.70;;;4.90;99.90;;;;;;5056671;28;20409;-76
2023/03/06 09:26:10;;;;;;;24.90;15.40;;;4.70;99.90;;;;;;5062030;28;20427;-78
2023/03/06 09:28:38;;;;;;;22.43;16.13;;;4.90;99.90;;;;;;5047626;28;20485;-78
2023/03/06 09:31:21;;;;;;;20.63;14.20;;;4.90;99.90;;;;;;5056062;28;20447;-77
2023/03/06 09:33:47;;;;;;;25.67;16.43;;;4.90;99.90;;;;;;5062160;28;20435;-78
2023/03/06 09:36:19;;;;;;;22.83;15.17;;;4.70;99.90;;;;;;5064350;28;21187;-78
2023/03/06 09:38:46;;;;;;;23.73;15.70;;;4.90;99.90;;;;;;5062173;28;20193;-78
2023/03/06 09:41:27;;;;;;;27.27;17.50;;;4.80;99.90;;;;;;5045040;28;20498;-78
2023/03/06 09:44:03;;;;;;;24.50;16.60;;;4.90;99.90;;;;;;5055423;28;20971;-77
2023/03/06 09:46:34;;;;;;;24.63;15.60;;;4.70;99.90;;;;;;5054849;28;20932;-78
2023/03/06 09:49:40;;;;;;;28.00;15.60;;;4.80;99.90;;;;;;5040742;28;20452;-78
2023/03/06 09:52:42;;;;;;;27.63;17.40;;;5.00;99.90;;;;;;5051779;28;20772;-77
2023/03/06 09:55:23;;;;;;;26.70;17.17;;;4.90;99.90;;;;;;5053816;28;20486;-78
2023/03/06 09:58:10;;;;;;;26.03;17.17;;;4.90;99.90;;;;;;5058168;28;20450;-78
2023/03/06 10:00:50;;;;;;;25.90;18.00;;;4.80;99.90;;;;;;5061233;28;20415;-78
2023/03/06 10:03:28;;;;;;;30.30;19.57;;;4.80;99.90;;;;;;5061084;28;20473;-78
2023/03/06 10:06:36;;;;;;;27.13;18.03;;;4.90;99.90;;;;;;5042308;28;21041;-77
2023/03/06 10:09:13;;;;;;;26.80;18.07;;;4.80;99.90;;;;;;5059619;28;20827;-78
2023/03/06 10:12:08;;;;;;;27.07;18.70;;;4.80;99.90;;;;;;5064786;28;20453;-78
2023/03/06 10:14:42;;;;;;;30.33;19.77;;;4.90;99.90;;;;;;5064392;28;20465;-78
2023/03/06 10:17:17;;;;;;;32.00;21.60;;;4.90;99.90;;;;;;5059057;28;20471;-78
2023/03/06 10:19:43;;;;;;;29.60;21.17;;;4.90;99.90;;;;;;5063428;28;21077;-78
2023/03/06 10:22:29;;;;;;;30.47;20.80;;;5.00;99.90;;;;;;5061263;28;20415;-78
2023/03/06 10:25:23;;;;;;;31.57;22.00;;;4.70;99.90;;;;;;5061419;28;20415;-78
2023/03/06 10:28:02;;;;;;;31.67;22.13;;;4.80;99.90;;;;;;5050422;28;20461;-78
2023/03/06 10:31:02;;;;;;;31.57;22.30;;;5.00;99.90;;;;;;5055790;28;20535;-78
2023/03/06 10:33:31;;;;;;;31.80;20.93;;;4.80;99.90;;;;;;5062846;28;20407;-78
2023/03/06 10:35:57;;;;;;;29.53;22.27;;;5.00;99.90;;;;;;5061845;28;20400;-79
2023/03/06 10:38:37;;;;;;;31.53;21.93;;;4.80;99.90;;;;;;5052073;28;20945;-79
2023/03/06 10:41:11;;;;;;;31.07;21.30;;;5.10;99.90;;;;;;5048290;28;20474;-80
2023/03/06 10:43:39;;;;;;;33.03;22.90;;;5.10;99.90;;;;;;5049653;28;20418;-80
2023/03/06 10:46:07;;;;;;;30.50;21.47;;;5.00;99.90;;;;;;5047027;28;20520;-80
2023/03/06 10:48:37;;;;;;;31.70;22.50;;;5.10;99.90;;;;;;5047540;28;20864;-78
2023/03/06 10:51:17;;;;;;;32.97;22.80;;;5.00;99.90;;;;;;5045225;28;20420;-79
2023/03/06 10:53:59;;;;;;;32.37;22.07;;;5.40;99.90;;;;;;5045691;28;20445;-79
2023/03/06 10:56:39;;;;;;;31.93;21.97;;;5.40;99.90;;;;;;5047583;28;20827;-77
2023/03/06 10:59:31;;;;;;;31.03;20.80;;;5.50;99.90;;;;;;5051092;28;20408;-79
2023/03/06 11:02:12;;;;;;;29.40;21.97;;;5.40;99.90;;;;;;5044733;28;20413;-79
2023/03/06 11:04:40;;;;;;;34.40;24.13;;;5.50;99.90;;;;;;5048127;28;20440;-79
2023/03/06 11:07:17;;;;;;;32.90;23.70;;;5.50;99.90;;;;;;5054126;28;20539;-79
2023/03/06 11:09:55;;;;;;;30.67;22.60;;;5.50;99.90;;;;;;5049333;28;20464;-79
2023/03/06 11:12:24;;;;;;;34.83;24.70;;;5.30;99.90;;;;;;5049674;28;20435;-79
2023/03/06 11:15:16;;;;;;;37.10;23.27;;;5.50;99.90;;;;;;5046741;28;20504;-78
2023/03/06 11:18:00;;;;;;;30.50;21.70;;;5.40;99.90;;;;;;5048295;28;20447;-78
2023/03/06 11:20:51;;;;;;;33.73;22.30;;;5.50;99.90;;;;;;5050750;28;20574;-79
2023/03/06 11:23:37;;;;;;;29.97;20.97;;;5.50;99.90;;;;;;5029859;28;20416;-77
2023/03/06 11:26:12;;;;;;;28.67;19.20;;;5.40;99.90;;;;;;5042790;28;20435;-78
2023/03/06 11:28:46;;;;;;;27.70;19.17;;;5.40;99.90;;;;;;5043174;28;20456;-79
2023/03/06 11:31:23;;;;;;;29.03;19.70;;;5.50;99.90;;;;;;5053205;28;21271;-78
2023/03/06 11:34:15;;;;;;;27.37;19.43;;;5.70;99.90;;;;;;5053684;28;20412;-79
2023/03/06 11:36:48;;;;;;;28.00;18.00;;;5.70;99.90;;;;;;5043827;28;20449;-79
2023/03/06 11:39:35;;;;;;;18.87;14.13;;;5.60;99.90;;;;;;5048383;28;20451;-79
2023/03/06 11:42:24;;;;;;;18.60;12.57;;;5.70;99.90;;;;;;5046669;28;20790;-79
2023/03/06 11:45:21;;;;;;;18.83;13.50;;;5.70;99.90;;;;;;5029622;28;20431;-79
2023/03/06 11:48:02;;;;;;;21.30;14.30;;;5.80;99.90;;;;;;5047302;28;21301;-78
2023/03/06 11:50:35;;;;;;;21.90;15.10;;;5.80;99.90;;;;;;5045849;28;20468;-78
2023/03/06 11:53:03;;;;;;;23.70;16.83;;;6.00;99.90;;;;;;5053341;28;20925;-78
2023/03/06 11:55:43;;;;;;;21.97;16.60;;;6.10;99.90;;;;;;5053302;28;20416;-78
2023/03/06 11:58:47;;;;;;;25.00;18.67;;;6.20;99.90;;;;;;5051801;28;20444;-77
2023/03/06 12:01:42;;;;;;;24.53;17.77;;;6.40;99.90;;;;;;5052170;28;20424;-80
2023/03/06 12:04:33;;;;;;;23.80;17.37;;;6.70;99.90;;;;;;5048022;28;20420;-79
2023/03/06 12:07:22;;;;;;;26.60;18.57;;;6.80;99.90;;;;;;5048473;28;20449;-80
2023/03/06 12:10:06;;;;;;;22.70;15.87;;;6.60;99.90;;;;;;5034744;28;20460;-78
2023/03/06 12:13:06;;;;;;;19.43;14.00;;;7.00;99.90;;;;;;5036701;28;20418;-79
2023/03/06 12:15:53;;;;;;;16.37;13.03;;;7.10;99.90;;;;;;5037811;28;20483;-78
2023/03/06 12:18:36;;;;;;;17.53;12.60;;;7.00;99.90;;;;;;5037309;28;20421;-80
2023/03/06 12:21:40;;;;;;;18.00;13.00;;;7.00;99.90;;;;;;5035805;28;20429;-79
2023/03/06 12:24:37;;;;;;;16.47;11.83;;;6.90;99.90;;;;;;5038175;28;20974;-79
2023/03/06 12:27:14;;;;;;;18.03;12.60;;;6.80;99.90;;;;;;5037392;28;20563;-79
2023/03/06 12:30:04;;;;;;;16.00;11.30;;;6.40;99.90;;;;;;5036423;28;20992;-78
2023/03/06 12:32:51;;;;;;;16.53;12.67;;;6.60;99.90;;;;;;5045606;28;20412;-79
2023/03/06 12:35:42;;;;;;;14.97;11.93;;;6.60;99.90;;;;;;5057416;28;20419;-76
2023/03/06 12:38:08;;;;;;;13.63;10.43;;;6.50;99.90;;;;;;5056095;28;20439;-79
2023/03/06 12:41:11;;;;;;;13.30;10.20;;;6.70;99.90;;;;;;5037529;28;20425;-80
2023/03/06 12:44:01;;;;;;;13.17;10.10;;;6.40;99.90;;;;;;5035852;28;20343;-77
2023/03/06 12:46:29;;;;;;;14.00;10.20;;;6.40;99.90;;;;;;5072428;28;20423;-79
2023/03/06 12:49:09;;;;;;;16.60;10.60;;;6.50;99.90;;;;;;5075832;28;20773;-77
2023/03/06 12:51:38;;;;;;;14.30;10.10;;;6.70;99.90;;;;;;5077806;28;20496;-77